createdAt,value
2017-09-17T00:00:51.060Z,0.93
2017-09-17T00:03:24.753Z,1.00
2017-09-17T00:05:58.263Z,0.93
2017-09-17T00:08:31.871Z,0.80
2017-09-17T00:11:05.566Z,0.77
2017-09-17T00:13:39.146Z,0.80
2017-09-17T00:16:12.970Z,0.97
2017-09-17T00:18:46.714Z,0.80
2017-09-17T00:21:20.388Z,0.80
2017-09-17T00:23:54.490Z,0.73
2017-09-17T00:26:28.090Z,0.80
2017-09-17T00:29:01.583Z,0.67
2017-09-17T00:31:35.187Z,0.90
2017-09-17T00:34:08.796Z,1.00
2017-09-17T00:36:42.386Z,1.07
2017-09-17T00:39:15.994Z,0.70
2017-09-17T00:41:50.122Z,0.70
2017-09-17T00:44:23.703Z,0.80
2017-09-17T00:46:57.279Z,0.90
2017-09-17T00:49:30.871Z,1.00
2017-09-17T00:52:04.506Z,0.70
2017-09-17T00:54:38.071Z,1.10
2017-09-17T00:57:11.821Z,0.80
2017-09-17T00:59:45.479Z,0.80
2017-09-17T01:02:19.812Z,0.80
2017-09-17T01:04:53.337Z,0.70
2017-09-17T01:07:27.145Z,0.70
2017-09-17T01:10:00.581Z,0.73
2017-09-17T01:12:34.210Z,0.73
2017-09-17T01:15:07.846Z,0.90
2017-09-17T01:17:42.257Z,0.70
2017-09-17T01:20:15.745Z,0.80
2017-09-17T01:22:50.170Z,0.70
2017-09-17T01:25:23.770Z,0.87
2017-09-17T01:27:57.274Z,0.63
2017-09-17T01:30:31.183Z,0.60
2017-09-17T01:33:04.739Z,0.80
2017-09-17T01:35:38.378Z,0.70
2017-09-17T01:38:11.891Z,0.60
2017-09-17T01:40:45.358Z,0.60
2017-09-17T01:43:18.878Z,0.70
2017-09-17T01:45:52.557Z,0.60
2017-09-17T01:48:26.278Z,0.57
2017-09-17T01:51:00.557Z,0.60
2017-09-17T01:53:34.298Z,0.60
2017-09-17T01:56:07.912Z,0.97
2017-09-17T01:58:41.498Z,0.60
2017-09-17T02:01:15.265Z,0.90
2017-09-17T02:03:48.878Z,1.37
2017-09-17T02:06:23.326Z,0.90
2017-09-17T02:08:56.930Z,0.77
2017-09-17T02:11:30.506Z,0.80
2017-09-17T02:14:04.960Z,0.80
2017-09-17T02:16:38.504Z,0.67
2017-09-17T02:19:12.106Z,0.70
2017-09-17T02:21:45.962Z,0.53
2017-09-17T02:24:19.562Z,0.70
2017-09-17T02:26:53.258Z,0.77
2017-09-17T02:29:26.857Z,0.83
2017-09-17T02:32:00.650Z,0.70
2017-09-17T02:34:34.365Z,0.80
2017-09-17T02:37:07.954Z,0.70
2017-09-17T02:39:41.644Z,0.80
2017-09-17T02:42:15.250Z,0.90
2017-09-17T02:44:48.986Z,0.90
2017-09-17T02:47:22.678Z,0.80
2017-09-17T02:49:56.277Z,0.67
2017-09-17T02:52:29.845Z,0.80
2017-09-17T02:55:03.446Z,0.57
2017-09-17T02:57:37.061Z,1.00
2017-09-17T03:00:10.664Z,0.70
2017-09-17T03:02:44.242Z,0.80
2017-09-17T03:05:18.601Z,0.73
2017-09-17T03:07:52.298Z,0.60
2017-09-17T03:10:25.991Z,0.80
2017-09-17T03:12:59.636Z,0.67
2017-09-17T03:15:33.192Z,1.00
2017-09-17T03:18:06.810Z,0.73
2017-09-17T03:20:40.473Z,0.70
2017-09-17T03:23:14.024Z,0.80
2017-09-17T03:25:47.654Z,0.60
2017-09-17T03:28:22.241Z,0.80
2017-09-17T03:30:56.526Z,0.60
2017-09-17T03:33:30.266Z,1.73
2017-09-17T03:36:03.721Z,0.80
2017-09-17T03:38:38.167Z,0.60
2017-09-17T03:41:12.609Z,0.80
2017-09-17T03:43:47.132Z,0.97
2017-09-17T03:46:21.422Z,0.70
2017-09-17T03:48:55.153Z,0.80
2017-09-17T03:51:28.802Z,0.60
2017-09-17T03:54:02.456Z,0.70
2017-09-17T03:56:36.163Z,0.67
2017-09-17T03:59:09.794Z,0.60
2017-09-17T04:01:43.373Z,0.60
2017-09-17T04:04:17.155Z,0.80
2017-09-17T04:06:50.766Z,0.70
2017-09-17T04:09:24.367Z,0.60
2017-09-17T04:11:58.062Z,0.60
2017-09-17T04:14:31.766Z,0.60
2017-09-17T04:17:05.469Z,0.93
2017-09-17T04:19:39.269Z,0.77
2017-09-17T04:22:12.839Z,0.60
2017-09-17T04:24:46.426Z,2.50
2017-09-17T04:27:20.038Z,0.90
2017-09-17T04:29:53.701Z,0.80
2017-09-17T04:32:28.101Z,0.70
2017-09-17T04:35:01.604Z,0.80
2017-09-17T04:37:35.081Z,0.90
2017-09-17T04:40:08.698Z,1.00
2017-09-17T04:42:42.270Z,0.80
2017-09-17T04:45:15.905Z,0.90
2017-09-17T04:47:49.505Z,1.00
2017-09-17T04:50:23.197Z,0.90
2017-09-17T04:52:56.701Z,0.90
2017-09-17T04:55:30.402Z,1.00
2017-09-17T04:58:04.216Z,0.90
2017-09-17T05:00:37.701Z,1.03
2017-09-17T05:03:11.213Z,1.00
2017-09-17T05:05:45.622Z,0.90
2017-09-17T05:08:19.322Z,1.10
2017-09-17T05:10:53.653Z,0.90
2017-09-17T05:13:27.346Z,1.07
2017-09-17T05:16:01.649Z,0.80
2017-09-17T05:18:35.236Z,0.90
2017-09-17T05:21:08.937Z,0.90
2017-09-17T05:23:42.580Z,1.00
2017-09-17T05:26:16.954Z,1.07
2017-09-17T05:28:50.590Z,1.20
2017-09-17T05:31:24.091Z,0.90
2017-09-17T05:33:58.574Z,1.57
2017-09-17T05:36:32.178Z,1.00
2017-09-17T05:39:05.924Z,1.30
2017-09-17T05:41:39.561Z,1.50
2017-09-17T05:44:13.948Z,1.00
2017-09-17T05:46:47.430Z,1.23
2017-09-17T05:49:20.978Z,0.90
2017-09-17T05:51:54.626Z,1.20
2017-09-17T05:54:28.186Z,1.60
2017-09-17T05:57:01.744Z,0.97
2017-09-17T05:59:35.362Z,1.50
2017-09-17T06:02:09.048Z,1.60
2017-09-17T06:04:42.730Z,1.40
2017-09-17T06:07:16.958Z,1.30
2017-09-17T06:09:50.666Z,1.50
2017-09-17T06:12:24.126Z,2.13
2017-09-17T06:14:57.654Z,1.50
2017-09-17T06:17:31.262Z,1.80
2017-09-17T06:20:04.864Z,1.70
2017-09-17T06:22:38.453Z,1.63
2017-09-17T06:25:12.818Z,2.03
2017-09-17T06:27:46.579Z,1.73
2017-09-17T06:30:20.282Z,1.80
2017-09-17T06:32:53.853Z,1.47
2017-09-17T06:35:28.100Z,2.17
2017-09-17T06:38:01.778Z,1.77
2017-09-17T06:40:35.408Z,1.60
2017-09-17T06:43:09.214Z,2.10
2017-09-17T06:45:42.715Z,2.60
2017-09-17T06:48:16.802Z,2.70
2017-09-17T06:50:50.421Z,3.27
2017-09-17T06:53:23.974Z,3.83
2017-09-17T06:55:58.441Z,4.37
2017-09-17T06:58:32.049Z,5.80
2017-09-17T07:01:06.758Z,7.73
2017-09-17T07:03:40.279Z,7.37
2017-09-17T07:06:13.962Z,8.60
2017-09-17T07:08:47.734Z,8.53
2017-09-17T07:11:21.342Z,9.17
2017-09-17T07:13:55.643Z,10.00
2017-09-17T07:16:29.293Z,7.83
2017-09-17T07:19:03.714Z,9.30
2017-09-17T07:21:37.284Z,8.10
2017-09-17T07:24:10.823Z,8.30
2017-09-17T07:26:44.523Z,5.13
2017-09-17T07:29:19.042Z,2.63
2017-09-17T07:31:53.342Z,3.77
2017-09-17T07:34:27.038Z,2.73
2017-09-17T07:37:00.626Z,3.60
2017-09-17T07:39:34.222Z,2.90
2017-09-17T07:42:07.862Z,4.20
2017-09-17T07:44:41.582Z,3.83
2017-09-17T07:47:15.374Z,5.43
2017-09-17T07:49:49.810Z,5.37
2017-09-17T07:52:24.214Z,4.77
2017-09-17T07:54:57.913Z,4.80
2017-09-17T07:57:31.623Z,5.33
2017-09-17T08:00:06.042Z,6.00
2017-09-17T08:02:40.466Z,5.77
2017-09-17T08:05:15.010Z,6.17
2017-09-17T08:07:48.545Z,6.00
2017-09-17T08:10:22.386Z,5.37
2017-09-17T08:12:56.191Z,6.23
2017-09-17T08:15:29.805Z,7.43
2017-09-17T08:18:03.505Z,8.10
2017-09-17T08:20:37.086Z,7.60
2017-09-17T08:23:11.422Z,7.50
2017-09-17T08:25:44.978Z,8.20
2017-09-17T08:28:18.725Z,9.43
2017-09-17T08:30:52.318Z,8.30
2017-09-17T08:33:25.886Z,9.03
2017-09-17T08:35:59.521Z,10.67
2017-09-17T08:38:33.123Z,9.23
2017-09-17T08:41:07.281Z,8.30
2017-09-17T08:43:41.807Z,9.50
2017-09-17T08:46:15.542Z,8.70
2017-09-17T08:48:49.363Z,10.00
2017-09-17T08:51:22.946Z,9.57
2017-09-17T08:53:56.541Z,9.50
2017-09-17T08:56:30.169Z,8.57
2017-09-17T08:59:03.989Z,10.00
2017-09-17T09:01:37.654Z,9.30
2017-09-17T09:04:11.962Z,10.00
2017-09-17T09:06:45.617Z,10.00
2017-09-17T09:09:20.566Z,9.53
2017-09-17T09:11:54.198Z,9.30
2017-09-17T09:14:27.942Z,8.27
2017-09-17T09:17:01.667Z,7.73
2017-09-17T09:19:35.279Z,7.60
2017-09-17T09:22:08.746Z,7.40
2017-09-17T09:24:43.753Z,8.50
2017-09-17T09:27:17.686Z,6.83
2017-09-17T09:29:51.395Z,7.67
2017-09-17T09:32:24.990Z,7.83
2017-09-17T09:34:58.441Z,7.70
2017-09-17T09:37:33.421Z,8.53
2017-09-17T09:40:06.916Z,8.23
2017-09-17T09:42:40.422Z,8.40
2017-09-17T09:45:14.838Z,8.40
2017-09-17T09:47:48.593Z,8.13
2017-09-17T09:50:22.962Z,8.53
2017-09-17T09:52:56.766Z,7.33
2017-09-17T09:55:30.346Z,8.57
2017-09-17T09:58:04.754Z,7.97
2017-09-17T10:00:38.386Z,8.50
2017-09-17T10:03:11.951Z,10.00
2017-09-17T10:05:45.697Z,8.80
2017-09-17T10:08:20.413Z,9.80
2017-09-17T10:10:53.986Z,8.37
2017-09-17T10:13:27.722Z,8.57
2017-09-17T10:16:01.166Z,7.93
2017-09-17T10:18:35.326Z,7.20
2017-09-17T10:21:08.930Z,8.23
2017-09-17T10:23:42.470Z,8.80
2017-09-17T10:26:15.992Z,7.90
2017-09-17T10:28:49.526Z,8.03
2017-09-17T10:31:23.118Z,7.47
2017-09-17T10:33:57.671Z,5.70
2017-09-17T10:36:31.356Z,5.87
2017-09-17T10:39:05.043Z,6.80
2017-09-17T10:41:38.658Z,8.20
2017-09-17T10:44:12.135Z,7.50
2017-09-17T10:46:45.716Z,8.70
2017-09-17T10:49:19.307Z,7.47
2017-09-17T10:51:52.968Z,7.40
2017-09-17T10:54:27.466Z,9.90
2017-09-17T10:57:02.531Z,8.00
2017-09-17T10:59:36.944Z,8.30
2017-09-17T11:02:10.638Z,8.20
2017-09-17T11:04:44.457Z,8.60
2017-09-17T11:07:18.173Z,11.47
2017-09-17T11:09:51.689Z,9.23
2017-09-17T11:12:25.938Z,8.50
2017-09-17T11:14:59.573Z,7.37
2017-09-17T11:17:33.283Z,8.20
2017-09-17T11:20:06.971Z,7.00
2017-09-17T11:22:40.529Z,8.00
2017-09-17T11:25:14.181Z,8.27
2017-09-17T11:27:47.666Z,6.93
2017-09-17T11:30:21.484Z,8.60
2017-09-17T11:32:55.293Z,7.13
2017-09-17T11:35:28.895Z,6.63
2017-09-17T11:38:02.599Z,6.37
2017-09-17T11:40:36.154Z,6.40
2017-09-17T11:43:11.218Z,5.60
2017-09-17T11:45:45.247Z,5.87
2017-09-17T11:48:18.938Z,5.60
2017-09-17T11:50:52.535Z,5.23
2017-09-17T11:53:26.952Z,4.50
2017-09-17T11:56:00.628Z,5.17
2017-09-17T11:58:34.357Z,4.43
2017-09-17T12:01:08.582Z,4.23
2017-09-17T12:03:42.377Z,4.60
2017-09-17T12:06:16.068Z,5.20
2017-09-17T12:08:49.686Z,3.87
2017-09-17T12:11:23.241Z,3.40
2017-09-17T12:13:56.998Z,3.43
2017-09-17T12:16:31.406Z,3.73
2017-09-17T12:19:05.005Z,4.70
2017-09-17T12:21:38.517Z,4.73
2017-09-17T12:24:13.034Z,5.10
2017-09-17T12:26:47.358Z,4.77
2017-09-17T12:29:21.026Z,4.30
2017-09-17T12:31:54.623Z,4.00
2017-09-17T12:34:28.458Z,3.27
2017-09-17T12:37:02.165Z,2.97
2017-09-17T12:39:36.654Z,2.30
2017-09-17T12:42:10.226Z,3.50
2017-09-17T12:44:43.985Z,2.80
2017-09-17T12:47:17.559Z,2.50
2017-09-17T12:49:52.115Z,2.27
2017-09-17T12:52:25.798Z,2.20
2017-09-17T12:55:02.247Z,2.10
2017-09-17T12:57:35.766Z,1.73
2017-09-17T13:00:09.577Z,2.30
2017-09-17T13:02:43.254Z,1.77
2017-09-17T13:05:16.791Z,1.90
2017-09-17T13:07:50.334Z,1.60
2017-09-17T13:10:23.987Z,1.60
2017-09-17T13:12:59.026Z,1.40
2017-09-17T13:15:32.699Z,1.43
2017-09-17T13:18:06.328Z,1.20
2017-09-17T13:20:39.926Z,1.70
2017-09-17T13:23:14.099Z,1.40
2017-09-17T13:25:47.710Z,1.10
2017-09-17T13:28:21.270Z,1.33
2017-09-17T13:30:54.926Z,1.03
2017-09-17T13:33:29.058Z,1.40
2017-09-17T13:36:02.653Z,1.43
2017-09-17T13:38:36.106Z,1.47
2017-09-17T13:41:09.698Z,1.30
2017-09-17T13:43:43.264Z,1.10
2017-09-17T13:46:17.645Z,1.23
2017-09-17T13:48:51.319Z,1.40
2017-09-17T13:51:24.937Z,1.07
2017-09-17T13:53:59.466Z,1.00
2017-09-17T13:56:33.002Z,1.10
2017-09-17T13:59:06.508Z,0.97
2017-09-17T14:01:46.794Z,1.10
2017-09-17T14:04:20.291Z,0.97
2017-09-17T14:06:56.472Z,1.10
2017-09-17T14:09:32.558Z,0.80
2017-09-17T14:12:06.138Z,0.90
2017-09-17T14:14:39.678Z,1.20
2017-09-17T14:17:13.358Z,1.50
2017-09-17T14:19:46.930Z,1.10
2017-09-17T14:22:20.562Z,1.00
2017-09-17T14:24:54.150Z,1.53
2017-09-17T14:27:27.821Z,1.47
2017-09-17T14:30:01.350Z,1.50
2017-09-17T14:32:34.847Z,1.40
2017-09-17T14:35:08.358Z,1.53
2017-09-17T14:37:41.882Z,1.30
2017-09-17T14:40:16.199Z,2.40
2017-09-17T14:42:49.903Z,1.63
2017-09-17T14:45:23.465Z,1.57
2017-09-17T14:47:57.131Z,1.57
2017-09-17T14:50:30.702Z,1.43
2017-09-17T14:53:05.090Z,1.53
2017-09-17T14:55:38.826Z,1.20
2017-09-17T14:58:13.554Z,1.60
2017-09-17T15:00:47.157Z,1.57
2017-09-17T15:03:20.756Z,1.40
2017-09-17T15:05:54.609Z,2.00
2017-09-17T15:08:28.359Z,1.67
2017-09-17T15:11:02.019Z,1.67
2017-09-17T15:13:35.661Z,2.00
2017-09-17T15:16:09.262Z,1.80
2017-09-17T15:18:42.862Z,1.70
2017-09-17T15:21:17.065Z,1.63
2017-09-17T15:23:50.795Z,1.73
2017-09-17T15:26:24.586Z,1.60
2017-09-17T15:28:59.051Z,1.97
2017-09-17T15:31:32.598Z,1.50
2017-09-17T15:34:06.175Z,1.57
2017-09-17T15:36:39.778Z,1.50
2017-09-17T15:39:13.380Z,1.47
2017-09-17T15:41:47.403Z,1.43
2017-09-17T15:44:20.922Z,1.40
2017-09-17T15:46:54.525Z,1.70
2017-09-17T15:49:28.190Z,1.50
2017-09-17T15:52:01.927Z,1.37
2017-09-17T15:54:36.242Z,2.30
2017-09-17T15:57:10.661Z,2.00
2017-09-17T15:59:44.262Z,1.57
2017-09-17T16:02:18.066Z,1.73
2017-09-17T16:04:52.087Z,2.20
2017-09-17T16:07:25.841Z,1.60
2017-09-17T16:09:59.397Z,1.47
2017-09-17T16:12:33.082Z,1.37
2017-09-17T16:15:06.789Z,1.27
2017-09-17T16:17:40.689Z,1.80
2017-09-17T16:20:14.503Z,1.73
2017-09-17T16:22:48.010Z,1.87
2017-09-17T16:25:21.630Z,1.47
2017-09-17T16:27:55.267Z,1.20
2017-09-17T16:30:29.618Z,1.70
2017-09-17T16:33:03.429Z,1.47
2017-09-17T16:35:36.984Z,1.17
2017-09-17T16:38:10.633Z,1.67
2017-09-17T16:40:44.351Z,1.20
2017-09-17T16:43:17.818Z,1.07
2017-09-17T16:45:51.727Z,0.90
2017-09-17T16:48:26.173Z,1.03
2017-09-17T16:50:59.726Z,1.70
2017-09-17T16:53:34.174Z,1.20
2017-09-17T16:56:07.670Z,0.97
2017-09-17T16:58:42.092Z,0.93
2017-09-17T17:01:15.922Z,1.10
2017-09-17T17:03:49.468Z,1.60
2017-09-17T17:06:23.795Z,1.30
2017-09-17T17:08:58.215Z,1.53
2017-09-17T17:11:32.059Z,1.33
2017-09-17T17:14:06.072Z,1.40
2017-09-17T17:16:40.496Z,1.20
2017-09-17T17:19:14.192Z,1.30
2017-09-17T17:21:47.770Z,1.33
2017-09-17T17:24:21.386Z,2.27
2017-09-17T17:26:55.094Z,1.80
2017-09-17T17:29:28.645Z,1.40
2017-09-17T17:32:02.392Z,1.53
2017-09-17T17:34:36.037Z,1.33
2017-09-17T17:37:09.806Z,1.70
2017-09-17T17:39:43.471Z,2.20
2017-09-17T17:42:17.117Z,1.40
2017-09-17T17:44:51.437Z,10.07
2017-09-17T17:47:26.695Z,20.50
2017-09-17T17:50:00.368Z,9.23
2017-09-17T17:52:34.071Z,3.57
2017-09-17T17:55:07.870Z,1.80
2017-09-17T17:57:43.013Z,1.67
2017-09-17T18:00:16.586Z,1.43
2017-09-17T18:02:50.068Z,1.50
2017-09-17T18:05:23.819Z,1.70
2017-09-17T18:07:58.314Z,2.00
2017-09-17T18:10:31.914Z,2.30
2017-09-17T18:13:05.545Z,1.63
2017-09-17T18:15:39.018Z,1.53
2017-09-17T18:18:12.726Z,1.83
2017-09-17T18:20:46.294Z,2.00
2017-09-17T18:23:21.330Z,1.87
2017-09-17T18:25:56.217Z,1.50
2017-09-17T18:28:30.052Z,1.73
2017-09-17T18:31:03.812Z,1.93
2017-09-17T18:33:37.379Z,1.70
2017-09-17T18:36:11.726Z,2.13
2017-09-17T18:38:46.132Z,1.33
2017-09-17T18:41:20.024Z,1.40
2017-09-17T18:43:54.561Z,2.77
2017-09-17T18:46:28.186Z,3.63
2017-09-17T18:49:01.670Z,4.23
2017-09-17T18:51:35.373Z,3.70
2017-09-17T18:54:08.987Z,2.70
2017-09-17T18:56:42.477Z,1.77
2017-09-17T18:59:16.085Z,2.07
2017-09-17T19:01:49.582Z,2.10
2017-09-17T19:04:23.366Z,2.40
2017-09-17T19:06:56.991Z,2.23
2017-09-17T19:09:30.578Z,2.10
2017-09-17T19:12:04.142Z,1.63
2017-09-17T19:14:37.794Z,1.53
2017-09-17T19:17:11.503Z,1.93
2017-09-17T19:19:45.222Z,1.47
2017-09-17T19:22:22.957Z,1.53
2017-09-17T19:24:56.818Z,2.67
2017-09-17T19:27:31.441Z,2.67
2017-09-17T19:30:05.028Z,1.43
2017-09-17T19:32:38.635Z,1.50
2017-09-17T19:35:15.014Z,1.40
2017-09-17T19:37:49.504Z,2.40
2017-09-17T19:40:23.186Z,2.23
2017-09-17T19:42:56.723Z,4.50
2017-09-17T19:45:30.318Z,4.70
2017-09-17T19:48:03.862Z,2.20
2017-09-17T19:50:37.513Z,2.20
2017-09-17T19:53:11.322Z,1.83
2017-09-17T19:55:44.930Z,2.17
2017-09-17T19:58:18.634Z,2.33
2017-09-17T20:00:52.982Z,2.13
2017-09-17T20:03:26.554Z,1.70
2017-09-17T20:06:00.202Z,1.50
2017-09-17T20:08:33.849Z,2.30
2017-09-17T20:11:07.350Z,1.30
2017-09-17T20:13:40.986Z,1.20
2017-09-17T20:16:14.650Z,2.07
2017-09-17T20:18:48.223Z,1.57
2017-09-17T20:21:21.750Z,1.50
2017-09-17T20:23:55.245Z,1.40
2017-09-17T20:26:28.851Z,1.30
2017-09-17T20:29:02.554Z,1.47
2017-09-17T20:31:36.163Z,1.10
2017-09-17T20:34:09.761Z,1.30
2017-09-17T20:36:43.358Z,1.10
2017-09-17T20:39:17.474Z,1.90
2017-09-17T20:41:51.148Z,1.30
2017-09-17T20:44:24.788Z,1.87
2017-09-17T20:46:58.274Z,1.43
2017-09-17T20:49:32.694Z,1.50
2017-09-17T20:52:06.286Z,1.53
2017-09-17T20:54:40.030Z,1.67
2017-09-17T20:57:13.797Z,1.00
2017-09-17T20:59:47.599Z,1.40
2017-09-17T21:02:21.270Z,1.40
2017-09-17T21:04:54.906Z,1.40
2017-09-17T21:07:28.506Z,1.43
2017-09-17T21:10:02.030Z,1.33
2017-09-17T21:12:35.658Z,1.30
2017-09-17T21:15:09.219Z,1.53
2017-09-17T21:17:42.770Z,1.30
2017-09-17T21:20:16.310Z,1.20
2017-09-17T21:22:50.114Z,1.80
2017-09-17T21:25:23.817Z,1.53
2017-09-17T21:27:57.426Z,1.30
2017-09-17T21:30:30.915Z,1.50
2017-09-17T21:33:04.594Z,1.47
2017-09-17T21:35:38.247Z,1.40
2017-09-17T21:38:12.610Z,1.80
2017-09-17T21:40:49.873Z,1.67
2017-09-17T21:43:24.353Z,1.70
2017-09-17T21:45:58.022Z,0.90
2017-09-17T21:48:31.853Z,0.80
2017-09-17T21:51:05.462Z,0.87
2017-09-17T21:53:39.042Z,0.70
2017-09-17T21:56:12.546Z,1.20
2017-09-17T21:58:46.258Z,1.30
2017-09-17T22:01:19.866Z,1.03
2017-09-17T22:03:53.667Z,0.80
2017-09-17T22:06:27.696Z,0.90
2017-09-17T22:09:01.382Z,1.20
2017-09-17T22:11:34.862Z,1.47
2017-09-17T22:14:08.447Z,0.80
2017-09-17T22:16:42.061Z,0.90
2017-09-17T22:19:17.186Z,0.80
2017-09-17T22:21:50.918Z,1.03
2017-09-17T22:24:24.630Z,0.80
2017-09-17T22:26:58.079Z,0.80
2017-09-17T22:29:32.438Z,0.70
2017-09-17T22:32:06.148Z,0.77
2017-09-17T22:34:40.164Z,0.60
2017-09-17T22:37:14.019Z,0.60
2017-09-17T22:39:47.883Z,0.80
2017-09-17T22:42:22.290Z,0.80
2017-09-17T22:44:55.891Z,0.87
2017-09-17T22:47:29.697Z,0.73
2017-09-17T22:50:06.307Z,0.70
2017-09-17T22:52:40.042Z,0.70
2017-09-17T22:55:13.506Z,0.90
2017-09-17T22:57:47.265Z,0.90
2017-09-17T23:00:20.866Z,0.80
2017-09-17T23:02:54.674Z,0.90
2017-09-17T23:05:28.385Z,0.80
2017-09-17T23:08:02.087Z,0.70
2017-09-17T23:10:35.682Z,0.80
2017-09-17T23:13:09.285Z,0.67
2017-09-17T23:15:42.882Z,0.70
2017-09-17T23:18:16.486Z,0.70
2017-09-17T23:20:49.997Z,0.90
2017-09-17T23:23:23.903Z,1.13
2017-09-17T23:25:57.494Z,0.83
2017-09-17T23:28:32.015Z,0.90
2017-09-17T23:31:06.518Z,1.40
2017-09-17T23:33:40.221Z,1.10
2017-09-17T23:36:13.801Z,0.90
2017-09-17T23:38:47.513Z,0.80
2017-09-17T23:41:21.254Z,1.00
2017-09-17T23:43:56.321Z,0.60
2017-09-17T23:46:29.982Z,0.77
2017-09-17T23:49:04.216Z,0.80
2017-09-17T23:51:37.600Z,0.70
2017-09-17T23:54:11.270Z,1.00
2017-09-17T23:56:44.905Z,0.90
2017-09-17T23:59:18.395Z,0.70
